Time;durP1;ratioP1;P1;durP2;ratioP2;P2;SDS_P1;SDS_P2;PMS_P1;PMS_P2;Temp;Humidity;BMP_temperature;BMP_pressure;BME280_temperature;BME280_humidity;BME280_pressure;Samples;Min_cycle;Max_cycle;Signal;HPM_P1;HPM_P2
2021/11/15 00:01:12;;;;;;;33.97;17.30;;;;;;;8.22;81.87;102291.16;5055616;28;20041;-67
2021/11/15 00:03:41;;;;;;;31.95;17.33;;;;;;;8.12;81.67;102290.09;5055250;28;20349;-67
2021/11/15 00:06:08;;;;;;;31.63;18.17;;;;;;;8.04;81.48;102280.88;5052795;28;20509;-66
2021/11/15 00:08:36;;;;;;;34.25;18.33;;;;;;;7.99;81.34;102282.13;5055029;28;20082;-66
2021/11/15 00:11:03;;;;;;;31.88;17.65;;;;;;;8.04;81.36;102285.28;5056126;28;20037;-66
2021/11/15 00:13:30;;;;;;;35.28;19.33;;;;;;;8.04;81.12;102278.22;5055680;28;20060;-67
2021/11/15 00:15:57;;;;;;;32.47;18.10;;;;;;;8.10;82.51;102298.13;5054752;28;20048;-66
2021/11/15 00:18:24;;;;;;;33.70;18.92;;;;;;;8.18;81.73;102298.44;5055066;28;20462;-67
2021/11/15 00:20:51;;;;;;;33.03;18.65;;;;;;;8.20;81.11;102298.34;5036514;28;20118;-67
2021/11/15 00:23:17;;;;;;;32.72;18.17;;;;;;;8.22;81.14;102293.81;5055960;28;20041;-66
2021/11/15 00:25:44;;;;;;;35.80;18.38;;;;;;;8.26;81.02;102296.16;5054559;28;20562;-67
2021/11/15 00:28:11;;;;;;;34.60;18.50;;;;;;;8.27;80.88;102295.19;5055287;28;20041;-67
2021/11/15 00:30:38;;;;;;;30.73;18.25;;;;;;;8.26;81.30;102293.53;5055608;28;20037;-66
2021/11/15 00:33:05;;;;;;;31.65;16.77;;;;;;;8.26;81.24;102300.63;5053803;28;20041;-66
2021/11/15 00:35:32;;;;;;;32.92;18.30;;;;;;;8.28;80.98;102298.72;5055384;28;20041;-66
2021/11/15 00:37:59;;;;;;;33.63;18.05;;;;;;;8.27;81.02;102302.28;5055732;28;20041;-66
2021/11/15 00:40:26;;;;;;;35.17;18.35;;;;;;;8.23;80.89;102298.16;5055643;28;20068;-67
2021/11/15 00:42:53;;;;;;;34.95;18.33;;;;;;;8.26;81.07;102292.69;5054380;28;20048;-67
2021/11/15 00:45:20;;;;;;;33.47;19.23;;;;;;;8.25;81.10;102294.47;5037991;28;20075;-66
2021/11/15 00:47:47;;;;;;;35.40;18.17;;;;;;;8.30;81.71;102288.88;5054938;28;20515;-66
2021/11/15 00:50:18;;;;;;;34.20;18.35;;;;;;;8.32;81.54;102284.34;5055244;28;20059;-66
2021/11/15 00:52:46;;;;;;;;;;;;;;;8.34;81.14;102287.72;5071238;28;20132;-67
2021/11/15 00:55:15;;;;;;;32.78;17.23;;;;;;;8.31;81.37;102287.91;5070276;28;19921;-67
2021/11/15 00:57:42;;;;;;;31.17;17.80;;;;;;;8.33;80.79;102293.09;5070506;28;20132;-67
2021/11/15 01:00:12;;;;;;;36.70;18.83;;;;;;;8.34;80.65;102282.44;5033238;28;20041;-67
2021/11/15 01:02:39;;;;;;;34.90;17.90;;;;;;;8.38;80.61;102286.56;5043280;28;20044;-66
2021/11/15 01:05:07;;;;;;;33.97;17.30;;;;;;;8.36;80.75;102293.75;5053287;28;20054;-67
2021/11/15 01:07:34;;;;;;;31.48;18.73;;;;;;;8.41;81.04;102291.66;5055208;28;20141;-67
2021/11/15 01:10:01;;;;;;;32.20;17.58;;;;;;;8.39;81.43;102282.16;5055002;28;20041;-67
2021/11/15 01:12:27;;;;;;;32.63;17.45;;;;;;;8.37;81.43;102291.97;5055012;28;20045;-66
2021/11/15 01:14:54;;;;;;;34.80;17.70;;;;;;;8.32;81.37;102284.34;5054064;28;20037;-67
2021/11/15 01:17:21;;;;;;;34.05;18.85;;;;;;;8.23;81.30;102275.22;5053762;28;20516;-67
2021/11/15 01:19:48;;;;;;;34.45;18.50;;;;;;;8.21;81.31;102273.63;5054976;28;20494;-67
2021/11/15 01:22:16;;;;;;;31.38;18.38;;;;;;;8.20;81.30;102269.28;5054858;28;20049;-66
2021/11/15 01:24:42;;;;;;;32.15;18.02;;;;;;;8.20;81.64;102267.47;5054854;28;20095;-67
2021/11/15 01:27:09;;;;;;;33.28;18.30;;;;;;;8.30;81.45;102264.25;5054651;28;20171;-67
2021/11/15 01:29:36;;;;;;;31.75;18.20;;;;;;;8.34;81.24;102252.50;5053927;28;20044;-68
2021/11/15 01:32:03;;;;;;;33.97;17.75;;;;;;;8.33;81.14;102258.72;5054668;28;20048;-67
2021/11/15 01:34:30;;;;;;;36.75;18.00;;;;;;;8.27;81.59;102254.69;5052485;28;20041;-67
2021/11/15 01:36:57;;;;;;;35.97;19.40;;;;;;;8.20;82.00;102258.69;5052974;28;20055;-67
2021/11/15 01:39:24;;;;;;;38.20;18.80;;;;;;;8.06;81.69;102257.00;5043545;28;20041;-67
2021/11/15 01:41:52;;;;;;;35.53;19.02;;;;;;;8.16;81.69;102259.88;5052543;28;20121;-67
2021/11/15 01:44:19;;;;;;;35.53;19.20;;;;;;;8.05;81.28;102255.28;5052612;28;20051;-67
2021/11/15 01:46:48;;;;;;;34.85;18.95;;;;;;;7.94;81.45;102258.63;5054141;28;20048;-67
2021/11/15 01:49:15;;;;;;;38.70;18.00;;;;;;;7.98;81.17;102257.47;5054313;28;20494;-66
2021/11/15 01:51:43;;;;;;;33.65;18.90;;;;;;;8.09;81.00;102259.41;5052745;28;20048;-66
2021/11/15 01:54:09;;;;;;;35.20;18.55;;;;;;;8.10;81.95;102255.81;5053001;28;20405;-66
2021/11/15 01:56:36;;;;;;;31.88;18.05;;;;;;;7.97;80.80;102257.59;5053895;28;20049;-66
2021/11/15 01:59:05;;;;;;;35.88;18.30;;;;;;;7.97;80.94;102260.22;5060952;22;20410;-67
2021/11/15 02:01:31;;;;;;;33.45;17.58;;;;;;;7.93;80.96;102253.44;5053851;28;20048;-67
2021/11/15 02:03:58;;;;;;;36.55;18.35;;;;;;;7.92;81.90;102255.22;5050717;28;20047;-67
2021/11/15 02:06:26;;;;;;;32.60;18.13;;;;;;;7.98;81.14;102257.47;5052670;28;20048;-66
2021/11/15 02:08:53;;;;;;;35.72;18.73;;;;;;;7.94;81.49;102255.13;5053610;28;20486;-66
2021/11/15 02:11:20;;;;;;;32.63;18.23;;;;;;;8.06;81.77;102252.53;5052934;28;20079;-67
2021/11/15 02:13:47;;;;;;;35.35;18.85;;;;;;;7.91;81.32;102250.88;5053460;28;20048;-67
2021/11/15 02:16:14;;;;;;;39.08;19.00;;;;;;;8.02;81.14;102258.13;5053931;28;20048;-66
2021/11/15 02:18:41;;;;;;;36.95;18.73;;;;;;;8.04;81.62;102256.22;5053794;28;20051;-67
2021/11/15 02:21:09;;;;;;;37.72;17.90;;;;;;;8.13;82.09;102252.13;5058354;28;20032;-67
2021/11/15 02:23:40;;;;;;;35.83;18.90;;;;;;;8.15;81.42;102251.09;5055600;28;20048;-66
2021/11/15 02:26:09;;;;;;;37.55;19.30;;;;;;;8.04;80.98;102241.22;5059787;28;20052;-67
2021/11/15 02:28:40;;;;;;;36.28;19.27;;;;;;;8.08;81.23;102250.63;5053168;28;20094;-66
2021/11/15 02:31:08;;;;;;;;;;;;;;;8.06;80.85;102255.19;5047825;28;20064;-66
2021/11/15 02:33:35;;;;;;;37.53;18.60;;;;;;;8.03;81.91;102249.25;5032261;28;19921;-67
2021/11/15 02:36:05;;;;;;;33.42;17.92;;;;;;;7.94;81.26;102250.69;5032337;28;20486;-66
2021/11/15 02:38:32;;;;;;;37.53;18.35;;;;;;;7.95;81.43;102260.31;5058886;28;20049;-67
2021/11/15 02:40:59;;;;;;;36.45;18.35;;;;;;;7.91;81.04;102252.69;5033293;28;20065;-66
2021/11/15 02:43:26;;;;;;;38.05;18.02;;;;;;;8.04;81.26;102257.09;5033340;28;20042;-66
2021/11/15 02:45:53;;;;;;;35.55;17.25;;;;;;;7.98;81.22;102261.91;5034660;28;20038;-66
2021/11/15 02:48:23;;;;;;;37.17;17.75;;;;;;;7.92;81.20;102257.88;5051786;28;20064;-67
2021/11/15 02:50:50;;;;;;;34.83;17.17;;;;;;;7.84;81.65;102254.88;5051713;28;20512;-66
2021/11/15 02:53:17;;;;;;;33.95;16.83;;;;;;;7.96;80.80;102248.78;5051961;28;20091;-67
2021/11/15 02:55:44;;;;;;;37.95;17.15;;;;;;;7.93;81.07;102250.78;5052924;28;20044;-66
2021/11/15 02:58:13;;;;;;;34.22;17.52;;;;;;;7.83;81.23;102248.75;5051944;28;20043;-66
2021/11/15 03:00:44;;;;;;;38.47;17.95;;;;;;;7.71;81.09;102256.63;5048265;28;20053;-67
2021/11/15 03:03:13;;;;;;;33.13;16.75;;;;;;;7.64;81.65;102256.16;5032645;28;20056;-67
2021/11/15 03:05:45;;;;;;;37.08;18.33;;;;;;;7.69;82.04;102257.56;5030113;28;20096;-67
2021/11/15 03:08:13;;;;;;;38.28;17.38;;;;;;;7.67;81.51;102248.88;5031704;28;20052;-67
2021/11/15 03:10:41;;;;;;;36.33;17.80;;;;;;;7.63;81.57;102250.03;5032808;28;20063;-66
2021/11/15 03:13:10;;;;;;;35.13;17.67;;;;;;;7.76;81.08;102246.59;5033312;28;20053;-66
2021/11/15 03:15:40;;;;;;;32.15;16.98;;;;;;;8.03;80.52;102239.50;5015231;28;20406;-67
2021/11/15 03:18:10;;;;;;;36.70;16.42;;;;;;;7.83;80.56;102235.53;5031704;28;20525;-66
2021/11/15 03:20:40;;;;;;;38.38;18.17;;;;;;;7.70;80.95;102237.28;5031959;28;20049;-67
2021/11/15 03:23:09;;;;;;;37.33;16.92;;;;;;;7.67;81.76;102232.19;5031624;28;20037;-66
2021/11/15 03:25:37;;;;;;;38.22;17.70;;;;;;;7.76;81.45;102233.41;5031355;28;20092;-66
2021/11/15 03:28:07;;;;;;;37.30;17.70;;;;;;;7.68;81.46;102229.44;5031385;28;20047;-67
2021/11/15 03:30:34;;;;;;;32.30;17.02;;;;;;;7.62;81.12;102229.00;5031472;28;20045;-66
2021/11/15 03:33:01;;;;;;;29.85;16.23;;;;;;;7.68;81.45;102232.09;5031684;28;20179;-66
2021/11/15 03:35:28;;;;;;;36.22;17.40;;;;;;;7.74;81.00;102230.84;5031053;28;20410;-66
2021/11/15 03:37:55;;;;;;;33.47;16.48;;;;;;;7.84;81.77;102231.09;5015418;28;20080;-66
2021/11/15 03:40:24;;;;;;;31.65;16.70;;;;;;;7.94;81.39;102240.13;5031269;28;20041;-66
2021/11/15 03:42:54;;;;;;;34.40;17.02;;;;;;;8.00;80.70;102241.50;5031409;28;20379;-67
2021/11/15 03:45:22;;;;;;;38.13;16.75;;;;;;;8.00;81.50;102244.16;5031109;28;20068;-66
2021/11/15 03:47:49;;;;;;;34.75;16.45;;;;;;;8.03;80.50;102236.88;5032328;28;20152;-67
2021/11/15 03:50:16;;;;;;;33.13;16.80;;;;;;;8.09;80.73;102243.53;5031276;28;20087;-67
2021/11/15 03:52:44;;;;;;;35.55;17.33;;;;;;;8.08;80.81;102245.34;5032724;28;20557;-67
2021/11/15 03:55:15;;;;;;;33.28;17.38;;;;;;;7.93;80.62;102250.78;5030932;28;20100;-66
2021/11/15 03:57:43;;;;;;;36.13;17.30;;;;;;;7.96;80.94;102256.72;5029371;28;20045;-67
2021/11/15 04:00:13;;;;;;;34.50;16.67;;;;;;;7.97;80.62;102254.94;5037588;22;20862;-67
2021/11/15 04:02:49;;;;;;;36.03;16.75;;;;;;;7.96;80.57;102251.44;5015055;28;20045;-66
2021/11/15 04:05:26;;;;;;;34.63;17.55;;;;;;;7.88;80.71;102259.88;5029739;28;20049;-67
2021/11/15 04:07:54;;;;;;;34.60;17.20;;;;;;;7.82;80.48;102265.56;5030783;28;20403;-67
2021/11/15 04:10:25;;;;;;;36.53;17.55;;;;;;;7.79;80.51;102262.28;5031171;28;20037;-66
2021/11/15 04:12:54;;;;;;;37.97;17.75;;;;;;;7.72;80.66;102255.69;5032495;28;20046;-66
2021/11/15 04:15:21;;;;;;;33.63;17.27;;;;;;;7.59;81.19;102258.25;5032351;28;20045;-66
2021/11/15 04:17:49;;;;;;;36.58;18.13;;;;;;;7.64;81.73;102258.78;5031198;28;20076;-67
2021/11/15 04:20:19;;;;;;;34.63;17.55;;;;;;;7.62;81.63;102258.91;5016096;28;20046;-67
2021/11/15 04:22:46;;;;;;;37.85;17.30;;;;;;;7.67;81.97;102263.88;5029846;28;20524;-67
2021/11/15 04:25:13;;;;;;;40.42;18.83;;;;;;;7.74;81.24;102251.97;5032238;28;20041;-66
2021/11/15 04:27:40;;;;;;;38.95;18.60;;;;;;;7.84;80.69;102253.09;5024897;28;20446;-67
2021/11/15 04:30:09;;;;;;;38.85;19.65;;;;;;;7.74;81.21;102245.84;5010622;28;20116;-67
2021/11/15 04:32:38;;;;;;;37.08;18.33;;;;;;;7.59;80.83;102245.91;5026418;28;20085;-67
2021/11/15 04:35:07;;;;;;;36.80;18.35;;;;;;;7.49;81.37;102243.00;5033733;28;20045;-67
2021/11/15 04:37:35;;;;;;;38.95;18.52;;;;;;;7.41;81.78;102245.25;5018354;28;20037;-66
2021/11/15 04:40:02;;;;;;;37.05;18.33;;;;;;;7.40;82.36;102248.84;5034580;28;20080;-66
2021/11/15 04:42:29;;;;;;;39.50;18.90;;;;;;;7.41;82.27;102247.91;5034322;28;20041;-67
2021/11/15 04:44:56;;;;;;;33.70;18.17;;;;;;;7.54;82.41;102250.63;5034589;28;20048;-67
2021/11/15 04:47:24;;;;;;;40.22;18.38;;;;;;;7.60;82.10;102249.38;5035201;28;20053;-67
2021/11/15 04:49:51;;;;;;;38.28;18.90;;;;;;;7.73;81.51;102242.38;5035441;28;20041;-67
2021/11/15 04:52:18;;;;;;;38.38;20.20;;;;;;;7.67;81.50;102254.16;5035146;28;20128;-66
2021/11/15 04:54:45;;;;;;;40.22;19.95;;;;;;;7.65;81.03;102242.84;5025958;28;20050;-66
2021/11/15 04:57:12;;;;;;;41.53;19.98;;;;;;;7.73;81.49;102241.50;5017918;28;20065;-66
2021/11/15 04:59:39;;;;;;;39.45;19.33;;;;;;;7.78;80.95;102244.72;5033799;28;20099;-67
2021/11/15 05:02:06;;;;;;;40.67;19.27;;;;;;;7.74;81.57;102241.41;5035059;28;20444;-66
2021/11/15 05:04:33;;;;;;;38.47;19.75;;;;;;;7.75;80.91;102242.25;5033312;28;20042;-67
2021/11/15 05:07:00;;;;;;;34.67;18.85;;;;;;;7.75;81.30;102223.75;5033668;28;20482;-67
2021/11/15 05:09:27;;;;;;;40.95;19.13;;;;;;;7.86;80.84;102234.50;5017756;28;20037;-66
2021/11/15 05:11:54;;;;;;;41.85;20.17;;;;;;;7.71;80.46;102228.41;5034958;28;20124;-67
2021/11/15 05:14:21;;;;;;;43.78;19.65;;;;;;;7.72;80.61;102227.47;5034726;28;20487;-67
2021/11/15 05:16:48;;;;;;;40.88;19.45;;;;;;;7.65;80.73;102229.63;5034853;28;20490;-67
2021/11/15 05:19:15;;;;;;;40.72;19.58;;;;;;;7.60;80.98;102223.81;5034830;28;20068;-67
2021/11/15 05:21:42;;;;;;;40.25;19.58;;;;;;;7.69;81.18;102231.16;5034951;28;20041;-67
2021/11/15 05:24:09;;;;;;;39.55;19.40;;;;;;;7.68;81.08;102223.34;5034866;28;20041;-67
2021/11/15 05:26:35;;;;;;;42.33;20.50;;;;;;;7.73;80.91;102231.81;5034779;28;20042;-67
2021/11/15 05:29:02;;;;;;;37.92;20.10;;;;;;;7.63;80.12;102228.91;5033058;28;20445;-67
2021/11/15 05:31:32;;;;;;;42.03;20.58;;;;;;;7.59;80.73;102224.75;5031641;28;20109;-67
2021/11/15 05:33:59;;;;;;;43.92;19.75;;;;;;;7.64;80.73;102227.97;5033427;28;20049;-67
2021/11/15 05:36:26;;;;;;;41.05;19.70;;;;;;;7.74;81.41;102222.91;5034168;28;20517;-67
2021/11/15 05:38:53;;;;;;;42.75;19.73;;;;;;;7.78;81.22;102227.06;5029189;28;20136;-67
2021/11/15 05:41:20;;;;;;;37.50;20.17;;;;;;;7.81;80.84;102228.66;5027872;28;20124;-67
2021/11/15 05:43:47;;;;;;;41.33;20.42;;;;;;;7.85;80.92;102236.28;5033590;28;20041;-67
2021/11/15 05:46:13;;;;;;;42.03;19.88;;;;;;;7.82;80.95;102230.34;5034190;28;20141;-67
2021/11/15 05:48:40;;;;;;;41.10;20.80;;;;;;;7.69;81.21;102233.81;5034062;28;20462;-67
2021/11/15 05:51:07;;;;;;;43.05;20.92;;;;;;;7.59;81.40;102237.97;5032705;28;20060;-67
2021/11/15 05:53:36;;;;;;;44.15;19.75;;;;;;;7.58;81.71;102228.34;5033918;28;20049;-67
2021/11/15 05:56:05;;;;;;;41.45;20.92;;;;;;;7.45;81.73;102228.28;5034046;28;20046;-66
2021/11/15 05:58:32;;;;;;;44.97;20.92;;;;;;;7.38;82.17;102226.97;4984756;28;20045;-67
2021/11/15 06:00:59;;;;;;;43.70;21.13;;;;;;;7.38;81.96;102231.41;5031623;28;20547;-67
2021/11/15 06:03:27;;;;;;;44.22;20.60;;;;;;;7.29;82.47;102230.19;5030878;28;20114;-67
2021/11/15 06:05:54;;;;;;;48.22;22.15;;;;;;;7.31;82.31;102225.66;5032320;28;20406;-67
2021/11/15 06:08:21;;;;;;;41.95;21.05;;;;;;;7.33;82.74;102231.72;5032570;28;20045;-67
2021/11/15 06:10:48;;;;;;;46.78;20.92;;;;;;;7.53;82.65;102235.72;5033475;28;20088;-66
2021/11/15 06:13:15;;;;;;;46.40;20.88;;;;;;;7.48;82.20;102232.53;5033741;28;20416;-66
2021/11/15 06:15:42;;;;;;;49.72;20.67;;;;;;;7.49;81.49;102234.22;5033494;28;20425;-66
2021/11/15 06:18:09;;;;;;;48.97;21.35;;;;;;;7.45;81.89;102228.28;5016218;28;20049;-67
2021/11/15 06:20:36;;;;;;;43.05;20.55;;;;;;;7.53;81.69;102238.38;5033842;28;20086;-66
2021/11/15 06:23:02;;;;;;;45.17;20.73;;;;;;;7.67;80.58;102240.13;5033518;28;20052;-67
2021/11/15 06:25:31;;;;;;;47.28;20.60;;;;;;;7.55;80.70;102240.88;5032267;28;20049;-66
2021/11/15 06:27:57;;;;;;;45.28;21.17;;;;;;;7.40;81.25;102248.84;5007101;28;20057;-66
2021/11/15 06:30:24;;;;;;;48.95;21.52;;;;;;;7.58;81.71;102243.34;4989792;28;20120;-67
2021/11/15 06:32:51;;;;;;;41.30;19.38;;;;;;;7.62;81.16;102242.19;5012678;28;20060;-66
2021/11/15 06:35:18;;;;;;;43.45;20.15;;;;;;;7.70;80.97;102239.94;5015652;28;20045;-66
2021/11/15 06:37:45;;;;;;;45.40;19.65;;;;;;;7.74;80.87;102240.56;5032956;28;20049;-66
2021/11/15 06:40:14;;;;;;;46.72;20.08;;;;;;;7.82;80.00;102235.63;5032110;28;20520;-66
2021/11/15 06:42:42;;;;;;;44.15;19.25;;;;;;;7.74;81.02;102236.13;5031977;28;20406;-68
2021/11/15 06:45:09;;;;;;;44.88;21.27;;;;;;;7.78;80.61;102245.53;5031550;28;20045;-67
2021/11/15 06:47:37;;;;;;;50.00;20.27;;;;;;;7.73;80.84;102245.03;5032708;28;20450;-66
2021/11/15 06:50:06;;;;;;;44.47;20.67;;;;;;;7.53;80.80;102250.72;5031628;28;20052;-66
2021/11/15 06:52:33;;;;;;;47.85;21.65;;;;;;;7.40;80.68;102254.13;5032400;28;20494;-66
2021/11/15 06:55:00;;;;;;;43.35;20.02;;;;;;;7.55;81.21;102256.72;5032760;28;20049;-66
2021/11/15 06:57:28;;;;;;;45.53;19.50;;;;;;;7.40;81.54;102258.56;5031264;28;20132;-66
2021/11/15 06:59:56;;;;;;;45.67;19.58;;;;;;;7.44;80.81;102263.56;5032654;28;20053;-66
2021/11/15 07:02:23;;;;;;;48.30;20.60;;;;;;;7.35;81.16;102260.63;5031692;28;20045;-66
2021/11/15 07:04:50;;;;;;;45.40;20.13;;;;;;;7.28;81.29;102257.53;5029508;28;20049;-66
2021/11/15 07:07:17;;;;;;;48.95;20.67;;;;;;;7.26;81.86;102252.34;5032884;28;20052;-66
2021/11/15 07:09:47;;;;;;;50.22;19.58;;;;;;;7.44;81.38;102255.63;5032744;28;20125;-66
2021/11/15 07:12:15;;;;;;;47.25;20.65;;;;;;;7.55;80.80;102262.00;5015763;28;20095;-66
2021/11/15 07:14:42;;;;;;;49.95;20.27;;;;;;;7.60;80.30;102263.41;5032629;28;20061;-66
2021/11/15 07:17:09;;;;;;;46.42;19.60;;;;;;;7.63;80.20;102270.31;5031701;28;20463;-66
2021/11/15 07:19:37;;;;;;;44.47;19.67;;;;;;;7.76;80.57;102270.38;5031157;28;20402;-66
2021/11/15 07:22:07;;;;;;;52.38;20.58;;;;;;;7.71;80.01;102268.03;5032886;28;20037;-68
2021/11/15 07:24:34;;;;;;;49.15;22.17;;;;;;;7.45;80.42;102267.03;5015112;28;20183;-66
2021/11/15 07:27:01;;;;;;;49.05;21.25;;;;;;;7.30;81.04;102267.06;5031354;28;20048;-66
2021/11/15 07:29:28;;;;;;;50.50;21.63;;;;;;;7.16;81.73;102266.22;5031506;28;20483;-66
2021/11/15 07:31:54;;;;;;;56.83;21.85;;;;;;;7.32;81.18;102266.13;5029517;28;20044;-66
2021/11/15 07:34:26;;;;;;;52.85;20.85;;;;;;;7.39;81.67;102264.78;5032531;28;20392;-66
2021/11/15 07:36:54;;;;;;;49.47;20.67;;;;;;;7.30;80.78;102267.06;5031807;28;20053;-66
2021/11/15 07:39:21;;;;;;;47.05;19.48;;;;;;;7.14;81.84;102261.03;5032486;28;20041;-67
2021/11/15 07:41:49;;;;;;;49.22;20.10;;;;;;;7.24;81.88;102274.50;5032474;28;20038;-66
2021/11/15 07:44:15;;;;;;;51.45;21.60;;;;;;;7.18;81.63;102272.25;5015010;28;20038;-67
2021/11/15 07:46:42;;;;;;;51.97;22.25;;;;;;;7.19;81.51;102272.16;5030881;28;20049;-66
2021/11/15 07:49:09;;;;;;;54.22;21.60;;;;;;;7.28;81.25;102276.03;5032353;28;20182;-66
2021/11/15 07:51:36;;;;;;;53.83;22.02;;;;;;;7.37;81.23;102283.38;5031045;28;20037;-66
2021/11/15 07:54:03;;;;;;;56.15;22.88;;;;;;;7.50;80.96;102288.72;5031158;28;20092;-66
2021/11/15 07:56:29;;;;;;;51.83;22.67;;;;;;;7.50;80.80;102286.09;5031142;28;20044;-67
2021/11/15 07:58:56;;;;;;;55.92;22.75;;;;;;;7.55;80.72;102291.94;5031172;28;20046;-66
2021/11/15 08:01:23;;;;;;;62.13;23.60;;;;;;;7.47;80.56;102286.28;5026658;28;20053;-66
2021/11/15 08:03:50;;;;;;;49.53;21.40;;;;;;;7.45;80.56;102290.81;5009762;28;20495;-66
2021/11/15 08:06:17;;;;;;;52.53;21.48;;;;;;;7.42;80.26;102285.69;5011051;28;20053;-66
2021/11/15 08:08:47;;;;;;;49.13;20.92;;;;;;;7.17;80.58;102284.59;5011372;28;20042;-66
2021/11/15 08:11:15;;;;;;;51.05;21.52;;;;;;;7.17;81.17;102287.25;5015194;28;20034;-66
2021/11/15 08:13:42;;;;;;;51.42;22.05;;;;;;;7.14;81.08;102281.31;5014720;28;20053;-66
2021/11/15 08:16:09;;;;;;;50.58;21.48;;;;;;;7.29;81.25;102288.25;5024016;28;20392;-66
2021/11/15 08:18:37;;;;;;;54.97;22.23;;;;;;;7.23;81.21;102291.28;5035062;28;20099;-67
2021/11/15 08:21:11;;;;;;;48.90;22.05;;;;;;;7.28;80.90;102290.06;5036191;28;20125;-67
2021/11/15 08:23:40;;;;;;;46.83;20.85;;;;;;;7.35;80.92;102293.19;5019246;28;20418;-67
2021/11/15 08:26:47;;;;;;;44.67;20.45;;;;;;;7.33;79.97;102286.28;5035651;28;20568;-67
2021/11/15 08:29:19;;;;;;;49.85;20.85;;;;;;;7.38;79.86;102282.41;5034548;28;20401;-67
2021/11/15 08:31:46;;;;;;;49.92;20.75;;;;;;;7.30;79.99;102285.53;5032897;28;20045;-67
2021/11/15 08:34:13;;;;;;;47.30;20.38;;;;;;;7.17;80.94;102289.88;5035647;28;20045;-67
2021/11/15 08:36:42;;;;;;;48.38;21.02;;;;;;;7.16;81.19;102292.59;5034157;28;20119;-67
2021/11/15 08:39:14;;;;;;;43.72;20.08;;;;;;;7.06;81.50;102284.41;5035530;28;20132;-66
2021/11/15 08:41:46;;;;;;;44.15;21.13;;;;;;;7.01;81.93;102279.41;5019517;28;20542;-67
2021/11/15 08:44:16;;;;;;;50.08;21.88;;;;;;;6.97;81.65;102288.44;5024454;28;20458;-67
2021/11/15 08:46:45;;;;;;;51.17;21.02;;;;;;;7.01;81.77;102289.13;5015919;28;20046;-67
2021/11/15 08:49:14;;;;;;;51.10;22.45;;;;;;;7.09;81.86;102282.44;4998020;28;20057;-67
2021/11/15 08:51:42;;;;;;;51.83;21.98;;;;;;;6.96;81.29;102289.38;5018452;28;20083;-67
2021/11/15 08:54:14;;;;;;;50.58;22.05;;;;;;;7.04;81.77;102283.63;5030587;28;20057;-65
2021/11/15 08:56:44;;;;;;;54.25;21.27;;;;;;;7.18;81.42;102280.16;5031218;28;20259;-66
2021/11/15 08:59:21;;;;;;;52.78;21.08;;;;;;;7.26;81.51;102285.84;5026700;28;20049;-66
2021/11/15 09:01:49;;;;;;;55.85;22.10;;;;;;;7.10;81.00;102283.28;5032999;28;20045;-66
2021/11/15 09:04:16;;;;;;;56.05;20.88;;;;;;;7.13;81.67;102275.19;5022717;28;20033;-66
2021/11/15 09:06:44;;;;;;;50.72;20.58;;;;;;;7.31;81.72;102278.44;5033663;28;20163;-65
2021/11/15 09:09:15;;;;;;;49.40;22.58;;;;;;;7.35;81.12;102279.97;5025831;28;20049;-66
2021/11/15 09:11:52;;;;;;;50.55;21.85;;;;;;;7.25;80.82;102281.47;5016750;28;20041;-66
2021/11/15 09:14:21;;;;;;;50.00;21.27;;;;;;;7.04;81.93;102279.22;5032360;28;20059;-66
2021/11/15 09:16:49;;;;;;;52.00;22.55;;;;;;;7.17;82.00;102284.59;5012583;28;20042;-66
2021/11/15 09:19:18;;;;;;;55.33;22.42;;;;;;;7.10;82.24;102296.47;5028045;28;20057;-66
2021/11/15 09:21:46;;;;;;;55.28;22.65;;;;;;;7.02;82.22;102296.06;5031581;28;20042;-66
2021/11/15 09:24:13;;;;;;;46.38;20.42;;;;;;;7.05;82.15;102290.63;5026917;28;20033;-66
2021/11/15 09:26:40;;;;;;;51.40;21.77;;;;;;;7.19;82.03;102289.78;5032960;28;20041;-66
2021/11/15 09:29:07;;;;;;;50.30;20.40;;;;;;;7.31;81.26;102294.28;5032889;28;20045;-66
2021/11/15 09:31:35;;;;;;;45.40;19.60;;;;;;;7.26;81.31;102289.31;5032776;28;20033;-66
2021/11/15 09:34:02;;;;;;;47.15;19.17;;;;;;;7.40;81.11;102291.06;5023876;28;20099;-66
2021/11/15 09:36:29;;;;;;;45.80;19.10;;;;;;;7.37;80.09;102288.66;5033125;28;20033;-66
2021/11/15 09:38:58;;;;;;;45.42;17.83;;;;;;;7.25;81.01;102290.25;5031687;28;20037;-66
2021/11/15 09:41:26;;;;;;;45.72;18.50;;;;;;;7.16;81.27;102279.41;5031230;28;20046;-66
2021/11/15 09:43:54;;;;;;;40.20;17.42;;;;;;;7.03;81.47;102279.31;5026459;28;20050;-66
2021/11/15 09:46:24;;;;;;;46.75;17.92;;;;;;;7.10;82.02;102278.84;5047972;28;20487;-66
2021/11/15 09:48:59;;;;;;;42.40;17.40;;;;;;;7.15;81.31;102280.34;5015482;28;20120;-66
2021/11/15 09:51:27;;;;;;;40.67;17.30;;;;;;;7.10;81.86;102280.63;5029125;28;20072;-66
2021/11/15 09:53:56;;;;;;;43.00;16.77;;;;;;;7.15;81.52;102290.91;5031517;28;20490;-66
2021/11/15 09:56:23;;;;;;;42.95;17.98;;;;;;;7.09;81.42;102289.47;5031717;28;20103;-66
2021/11/15 09:58:50;;;;;;;42.40;17.60;;;;;;;7.02;82.01;102290.78;5031585;28;20056;-66
2021/11/15 10:01:18;;;;;;;47.28;17.75;;;;;;;7.15;81.20;102289.13;4998854;28;20049;-66
2021/11/15 10:03:45;;;;;;;44.15;18.25;;;;;;;7.20;81.38;102294.09;5006175;28;20095;-66
2021/11/15 10:06:12;;;;;;;41.50;17.15;;;;;;;7.11;81.65;102293.75;5032267;28;20049;-66
2021/11/15 10:08:49;;;;;;;44.10;17.60;;;;;;;7.26;81.27;102285.84;5031345;28;20099;-66
2021/11/15 10:11:18;;;;;;;38.53;16.33;;;;;;;7.38;80.23;102290.31;5022986;28;20524;-66
2021/11/15 10:13:45;;;;;;;43.00;16.20;;;;;;;7.37;80.32;102287.78;5014030;28;20053;-66
2021/11/15 10:16:16;;;;;;;41.75;16.00;;;;;;;7.39;80.29;102284.13;5032360;28;20430;-66
2021/11/15 10:19:08;;;;;;;43.50;17.87;;;;;;;7.30;80.46;102289.97;5032350;28;20054;-66
2021/11/15 10:21:40;;;;;;;40.15;17.13;;;;;;;7.20;80.11;102284.38;5029028;28;20359;-66
2021/11/15 10:24:17;;;;;;;39.55;16.88;;;;;;;7.15;80.20;102273.28;5029395;28;20124;-66
2021/11/15 10:26:55;;;;;;;38.15;16.63;;;;;;;7.15;80.35;102285.63;5029288;28;20038;-66
2021/11/15 10:29:33;;;;;;;54.03;22.00;;;;;;;7.06;80.23;102287.06;5030905;28;20057;-66
2021/11/15 10:32:06;;;;;;;46.42;17.98;;;;;;;7.13;80.70;102284.88;5025475;28;20045;-66
2021/11/15 10:34:36;;;;;;;37.72;16.13;;;;;;;7.17;80.19;102281.09;5030754;28;20096;-66
2021/11/15 10:37:11;;;;;;;40.65;15.43;;;;;;;7.25;79.59;102282.31;5031336;28;20045;-66
2021/11/15 10:39:43;;;;;;;36.20;16.20;;;;;;;7.26;79.77;102285.84;5022072;28;20052;-66
2021/11/15 10:42:16;;;;;;;36.88;16.63;;;;;;;7.33;79.59;102283.63;5028217;28;20049;-67
2021/11/15 10:44:50;;;;;;;42.63;16.92;;;;;;;7.22;79.05;102271.09;5028018;28;20072;-66
2021/11/15 10:47:19;;;;;;;38.85;16.55;;;;;;;7.08;79.72;102266.69;5021332;28;20054;-66
2021/11/15 10:49:46;;;;;;;35.17;16.38;;;;;;;7.01;79.45;102266.22;5023077;28;20438;-66
2021/11/15 10:52:16;;;;;;;38.83;17.15;;;;;;;6.95;79.53;102263.97;5030298;28;20136;-66
2021/11/15 10:54:56;;;;;;;37.65;16.73;;;;;;;7.05;79.64;102256.31;5009393;28;20113;-66
2021/11/15 10:57:39;;;;;;;42.38;18.60;;;;;;;7.16;79.47;102251.22;5027288;28;20129;-66
2021/11/15 11:02:47;;;;;;;36.88;15.75;;;;;;;7.11;79.47;102240.09;5075105;28;20117;-66
2021/11/15 11:08:14;;;;;;;38.08;16.70;;;;;;;7.09;79.50;102244.63;5089392;27;20231;-67
2021/11/15 11:10:50;;;;;;;38.28;16.35;;;;;;;7.05;79.11;102243.13;5063034;28;20048;-66
2021/11/15 11:13:18;;;;;;;37.75;15.70;;;;;;;7.12;78.62;102241.81;5088660;28;20048;-67
2021/11/15 11:15:48;;;;;;;39.63;16.30;;;;;;;7.22;78.31;102250.00;5070769;28;20165;-67
2021/11/15 11:18:20;;;;;;;37.90;15.57;;;;;;;7.36;78.05;102246.50;5088443;28;20036;-66
2021/11/15 11:26:18;;;;;;;33.20;14.80;;;;;;;7.39;77.72;102226.03;5109496;27;20400;-66
2021/11/15 11:28:53;;;;;;;33.08;14.13;;;;;;;7.40;77.49;102224.22;5084891;28;20066;-66
2021/11/15 11:31:22;;;;;;;30.58;13.77;;;;;;;7.34;77.27;102216.72;5088226;28;20044;-66
2021/11/15 11:33:48;;;;;;;32.30;14.32;;;;;;;7.22;76.93;102219.19;5102233;28;20048;-66